createdAt,value
2023-02-20T00:00:32.565Z,98119.81
2023-02-20T00:02:59.113Z,98114.72
2023-02-20T00:05:25.819Z,98110.44
2023-02-20T00:07:52.459Z,98118.97
2023-02-20T00:10:19.398Z,98105.13
2023-02-20T00:12:46.084Z,98119.72
2023-02-20T00:15:15.510Z,98116.47
2023-02-20T00:17:44.501Z,98110.56
2023-02-20T00:20:11.557Z,98110.47
2023-02-20T00:22:38.105Z,98093.06
2023-02-20T00:25:04.818Z,98093.75
2023-02-20T00:27:31.366Z,98098.81
2023-02-20T00:29:57.876Z,98105.22
2023-02-20T00:32:24.464Z,98107.09
2023-02-20T00:34:51.534Z,98105.59
2023-02-20T00:37:18.181Z,98104.81
2023-02-20T00:39:44.675Z,98099.69
2023-02-20T00:42:11.162Z,98104.16
2023-02-20T00:44:37.712Z,98102.41
2023-02-20T00:47:04.544Z,98102.25
2023-02-20T00:49:31.009Z,98100.81
2023-02-20T00:51:57.500Z,98099.97
2023-02-20T00:54:24.046Z,98099.13
2023-02-20T00:56:50.616Z,98097.06
2023-02-20T00:59:17.136Z,98094.63
2023-02-20T01:01:43.685Z,98093.16
2023-02-20T01:04:10.244Z,98090.72
2023-02-20T01:06:36.761Z,98100.28
2023-02-20T01:09:03.634Z,98098.56
2023-02-20T01:11:30.307Z,98095.03
2023-02-20T01:13:56.805Z,98096.59
2023-02-20T01:16:23.435Z,98096.94
2023-02-20T01:18:51.886Z,98097.19
2023-02-20T01:21:19.117Z,98107.03
2023-02-20T01:23:45.792Z,98105.06
2023-02-20T01:26:12.943Z,98103.25
2023-02-20T01:28:39.641Z,98104.22
2023-02-20T01:31:07.414Z,98099.78
2023-02-20T01:33:34.170Z,98093.56
2023-02-20T01:36:00.673Z,98099.28
2023-02-20T01:38:27.237Z,98089.28
2023-02-20T01:40:53.911Z,98090.94
2023-02-20T01:43:20.480Z,98095.53
2023-02-20T01:45:47.046Z,98095.47
2023-02-20T01:48:25.715Z,98085.81
2023-02-20T01:50:57.348Z,98086.75
2023-02-20T01:53:27.257Z,98082.41
2023-02-20T01:55:58.977Z,98084.22
2023-02-20T01:58:31.226Z,98082.81
2023-02-20T02:01:00.740Z,98077.56
2023-02-20T02:03:32.924Z,98075.59
2023-02-20T02:06:03.264Z,98075.59
2023-02-20T02:08:30.049Z,98068.69
2023-02-20T02:11:10.757Z,98070.34
2023-02-20T02:13:39.000Z,98071.41
2023-02-20T02:16:24.405Z,98072.56
2023-02-20T02:19:05.931Z,98082.31
2023-02-20T02:21:32.370Z,98079.69
2023-02-20T02:24:35.376Z,98085.00
2023-02-20T02:27:32.268Z,98076.34
2023-02-20T02:30:16.995Z,98094.56
2023-02-20T02:32:43.492Z,98098.97
2023-02-20T02:35:35.808Z,98101.44
2023-02-20T02:38:17.245Z,98092.94
2023-02-20T02:40:52.954Z,98087.06
2023-02-20T02:43:29.096Z,98084.63
2023-02-20T02:45:59.351Z,98082.72
2023-02-20T02:48:37.963Z,98085.34
2023-02-20T02:51:15.896Z,98084.34
2023-02-20T02:53:42.377Z,98081.84
2023-02-20T02:56:23.030Z,98081.09
2023-02-20T02:58:52.935Z,98080.78
2023-02-20T03:01:21.848Z,98080.94
2023-02-20T03:03:51.072Z,98084.94
2023-02-20T03:06:36.563Z,98091.16
2023-02-20T03:09:10.518Z,98089.28
2023-02-20T03:11:39.860Z,98086.69
2023-02-20T03:14:46.225Z,98074.63
2023-02-20T03:17:15.775Z,98080.69
2023-02-20T03:19:53.820Z,98074.78
2023-02-20T03:22:29.322Z,98071.66
2023-02-20T03:25:04.154Z,98086.91
2023-02-20T03:27:50.756Z,98073.63
2023-02-20T03:30:50.747Z,98071.94
2023-02-20T03:33:40.532Z,98077.97
2023-02-20T03:36:30.756Z,98075.53
2023-02-20T03:39:21.064Z,98088.03
2023-02-20T03:42:07.901Z,98092.34
2023-02-20T03:44:36.297Z,98085.28
2023-02-20T03:47:05.958Z,98074.91
2023-02-20T03:49:37.046Z,98073.28
2023-02-20T03:52:04.677Z,98074.91
2023-02-20T03:54:33.428Z,98072.00
2023-02-20T03:57:04.653Z,98068.31
2023-02-20T03:59:37.002Z,98073.63
2023-02-20T04:02:11.451Z,98068.19
2023-02-20T04:04:46.925Z,98073.72
2023-02-20T04:07:19.381Z,98059.69
2023-02-20T04:09:46.891Z,98071.25
2023-02-20T04:12:26.750Z,98072.34
2023-02-20T04:14:56.699Z,98082.44
2023-02-20T04:17:30.494Z,98087.69
2023-02-20T04:19:57.016Z,98088.75
2023-02-20T04:22:32.462Z,98089.38
2023-02-20T04:25:10.885Z,98094.00
2023-02-20T04:27:37.521Z,98099.44
2023-02-20T04:30:04.614Z,98099.84
2023-02-20T04:32:31.206Z,98099.97
2023-02-20T04:34:57.918Z,98102.00
2023-02-20T04:37:24.425Z,98103.84
2023-02-20T04:39:50.944Z,98101.81
2023-02-20T04:42:17.499Z,98100.09
2023-02-20T04:44:43.963Z,98098.53
2023-02-20T04:47:16.120Z,98104.56
2023-02-20T04:49:42.850Z,98098.53
2023-02-20T04:52:09.363Z,98099.53
2023-02-20T04:54:35.881Z,98085.41
2023-02-20T04:57:02.418Z,98085.81
2023-02-20T04:59:28.916Z,98091.31
2023-02-20T05:01:56.409Z,98089.59
2023-02-20T05:04:23.178Z,98098.28
2023-02-20T05:06:52.778Z,98087.19
2023-02-20T05:09:20.719Z,98084.88
2023-02-20T05:11:47.832Z,98093.97
2023-02-20T05:14:14.999Z,98101.25
2023-02-20T05:16:42.803Z,98098.81
2023-02-20T05:19:09.461Z,98098.34
2023-02-20T05:21:54.349Z,98103.84
2023-02-20T05:24:21.321Z,98104.75
2023-02-20T05:26:47.845Z,98109.09
2023-02-20T05:29:14.402Z,98107.88
2023-02-20T05:31:41.520Z,98108.41
2023-02-20T05:34:09.336Z,98114.81
2023-02-20T05:36:36.390Z,98109.78
2023-02-20T05:39:04.260Z,98108.06
2023-02-20T05:41:31.422Z,98109.72
2023-02-20T05:43:58.970Z,98110.88
2023-02-20T05:46:27.033Z,98112.09
2023-02-20T05:48:54.245Z,98113.13
2023-02-20T05:51:30.330Z,98117.72
2023-02-20T05:53:57.020Z,98114.56
2023-02-20T05:56:24.187Z,98118.25
2023-02-20T05:58:51.192Z,98123.81
2023-02-20T06:01:26.006Z,98121.41
2023-02-20T06:03:52.670Z,98138.25
2023-02-20T06:06:20.048Z,98140.19
2023-02-20T06:08:48.226Z,98140.88
2023-02-20T06:11:15.550Z,98141.09
2023-02-20T06:13:43.426Z,98135.09
2023-02-20T06:16:10.503Z,98136.75
2023-02-20T06:18:41.950Z,98142.78
2023-02-20T06:21:11.878Z,98152.38
2023-02-20T06:23:39.221Z,98151.44
2023-02-20T06:26:07.063Z,98155.38
2023-02-20T06:28:34.247Z,98160.41
2023-02-20T06:31:02.321Z,98162.63
2023-02-20T06:33:29.650Z,98160.19
2023-02-20T06:35:56.294Z,98175.94
2023-02-20T06:38:23.208Z,98172.69
2023-02-20T06:40:50.070Z,98168.41
2023-02-20T06:43:17.159Z,98177.56
2023-02-20T06:45:43.872Z,98170.00
2023-02-20T06:48:11.130Z,98176.81
2023-02-20T06:50:37.635Z,98172.09
2023-02-20T06:53:04.147Z,98169.88
2023-02-20T06:55:30.718Z,98177.88
2023-02-20T06:57:57.334Z,98172.75
2023-02-20T07:00:24.135Z,98176.97
2023-02-20T07:02:50.834Z,98171.19
2023-02-20T07:05:17.521Z,98167.41
2023-02-20T07:07:44.042Z,98172.53
2023-02-20T07:10:10.631Z,98179.41
2023-02-20T07:12:40.197Z,98180.16
2023-02-20T07:15:08.015Z,98173.19
2023-02-20T07:17:34.695Z,98176.53
2023-02-20T07:20:01.250Z,98181.56
2023-02-20T07:22:27.812Z,98186.78
2023-02-20T07:24:54.721Z,98176.91
2023-02-20T07:27:21.935Z,98165.31
2023-02-20T07:29:50.299Z,98165.03
2023-02-20T07:32:20.524Z,98164.00
2023-02-20T07:35:02.396Z,98165.63
2023-02-20T07:37:29.756Z,98166.34
2023-02-20T07:39:56.256Z,98171.19
2023-02-20T07:42:23.000Z,98184.47
2023-02-20T07:44:49.593Z,98174.72
2023-02-20T07:47:16.134Z,98178.16
2023-02-20T07:49:42.631Z,98169.22
2023-02-20T07:52:09.165Z,98161.78
2023-02-20T07:54:35.636Z,98148.28
2023-02-20T07:57:02.425Z,98159.78
2023-02-20T07:59:28.970Z,98158.94
2023-02-20T08:01:55.675Z,98169.03
2023-02-20T08:04:22.267Z,98161.00
2023-02-20T08:06:48.841Z,98151.03
2023-02-20T08:09:15.305Z,98148.03
2023-02-20T08:11:41.825Z,98141.75
2023-02-20T08:14:08.455Z,98143.16
2023-02-20T08:16:35.082Z,98141.00
2023-02-20T08:19:02.051Z,98139.00
2023-02-20T08:21:28.564Z,98154.59
2023-02-20T08:23:55.130Z,98143.16
2023-02-20T08:26:21.828Z,98143.00
2023-02-20T08:28:49.693Z,98147.81
2023-02-20T08:31:30.855Z,98144.38
2023-02-20T08:33:58.509Z,98136.38
2023-02-20T08:36:25.022Z,98124.47
2023-02-20T08:38:51.520Z,98122.31
2023-02-20T08:41:18.026Z,98124.47
2023-02-20T08:43:44.645Z,98118.94
2023-02-20T08:46:11.752Z,98121.88
2023-02-20T08:48:38.658Z,98127.72
2023-02-20T08:51:06.883Z,98128.59
2023-02-20T08:53:34.745Z,98123.34
2023-02-20T08:56:01.236Z,98128.16
2023-02-20T08:58:27.849Z,98124.41
2023-02-20T09:00:55.547Z,98121.47
2023-02-20T09:03:22.422Z,98124.63
2023-02-20T09:05:49.628Z,98132.38
2023-02-20T09:08:16.577Z,98124.53
2023-02-20T09:10:43.246Z,98125.13
2023-02-20T09:13:10.321Z,98117.25
2023-02-20T09:15:39.896Z,98114.44
2023-02-20T09:18:09.984Z,98114.00
2023-02-20T09:20:37.687Z,98112.56
2023-02-20T09:23:05.480Z,98103.97
2023-02-20T09:25:32.317Z,98097.81
2023-02-20T09:27:58.994Z,98111.03
2023-02-20T09:30:25.842Z,98095.41
2023-02-20T09:32:52.678Z,98094.97
2023-02-20T09:35:31.060Z,98088.81
2023-02-20T09:37:57.705Z,98102.81
2023-02-20T09:40:26.898Z,98096.97
2023-02-20T09:43:31.705Z,98093.81
2023-02-20T09:46:20.512Z,98079.72
2023-02-20T09:49:11.549Z,98079.56
2023-02-20T09:51:41.655Z,98075.56
2023-02-20T09:54:08.167Z,98081.72
2023-02-20T09:56:43.301Z,98073.63
2023-02-20T09:59:16.686Z,98067.94
2023-02-20T10:01:52.177Z,98060.03
2023-02-20T10:04:23.546Z,98061.16
2023-02-20T10:06:53.538Z,98054.63
2023-02-20T10:09:20.112Z,98041.34
2023-02-20T10:12:05.250Z,98032.78
2023-02-20T10:14:41.211Z,98026.75
2023-02-20T10:17:24.274Z,98026.19
2023-02-20T10:19:58.961Z,98021.81
2023-02-20T10:22:33.982Z,98013.88
2023-02-20T10:25:18.440Z,98011.78
2023-02-20T10:28:13.060Z,98003.72
2023-02-20T10:30:41.662Z,97996.25
2023-02-20T10:33:33.415Z,97986.00
2023-02-20T10:36:25.104Z,97996.28
2023-02-20T10:38:58.602Z,98000.38
2023-02-20T10:41:30.346Z,97993.94
2023-02-20T10:44:16.237Z,97986.66
2023-02-20T10:47:14.394Z,97981.56
2023-02-20T10:49:58.092Z,97979.59
2023-02-20T10:52:34.057Z,97985.13
2023-02-20T10:55:16.553Z,97971.63
2023-02-20T10:57:47.515Z,97964.94
2023-02-20T11:00:20.202Z,97956.13
2023-02-20T11:02:57.654Z,97951.75
2023-02-20T11:05:27.489Z,97947.44
2023-02-20T11:07:54.039Z,97944.88
2023-02-20T11:10:20.577Z,97935.56
2023-02-20T11:12:51.449Z,97926.88
2023-02-20T11:15:24.102Z,97919.53
2023-02-20T11:17:53.604Z,97916.44
2023-02-20T11:20:32.703Z,97917.97
2023-02-20T11:22:59.777Z,97909.13
2023-02-20T11:25:28.525Z,97899.91
2023-02-20T11:28:00.711Z,97900.00
2023-02-20T11:30:35.670Z,97892.47
2023-02-20T11:33:15.654Z,97893.81
2023-02-20T11:35:44.472Z,97890.59
2023-02-20T11:38:17.216Z,97884.44
2023-02-20T11:40:47.332Z,97875.44
2023-02-20T11:43:13.863Z,97882.53
2023-02-20T11:45:41.079Z,97881.19
2023-02-20T11:48:07.546Z,97870.28
2023-02-20T11:50:39.981Z,97858.97
2023-02-20T11:53:08.003Z,97849.72
2023-02-20T11:55:35.089Z,97850.66
2023-02-20T11:58:02.823Z,97844.94
2023-02-20T12:00:50.706Z,97839.59
2023-02-20T12:03:34.446Z,97842.81
2023-02-20T12:06:22.202Z,97825.88
2023-02-20T12:08:56.242Z,97830.97
2023-02-20T12:11:26.614Z,97819.28
2023-02-20T12:13:56.722Z,97807.44
2023-02-20T12:16:23.332Z,97811.53
2023-02-20T12:19:30.235Z,97806.69
2023-02-20T12:22:09.849Z,97796.94
2023-02-20T12:24:54.245Z,97788.25
2023-02-20T12:27:26.381Z,97789.03
2023-02-20T12:30:02.462Z,97783.59
2023-02-20T12:32:42.262Z,97784.34
2023-02-20T12:35:32.081Z,97771.03
2023-02-20T12:38:17.907Z,97769.16
2023-02-20T12:41:19.399Z,97758.47
2023-02-20T12:44:13.205Z,97758.41
2023-02-20T12:46:50.300Z,97760.63
2023-02-20T12:49:54.548Z,97754.16
2023-02-20T12:52:39.872Z,97749.28
2023-02-20T12:55:21.398Z,97745.31
2023-02-20T12:58:08.489Z,97734.00
2023-02-20T13:00:35.069Z,97730.44
2023-02-20T13:03:11.990Z,97729.78
2023-02-20T13:05:43.350Z,97716.16
2023-02-20T13:08:15.804Z,97715.00
2023-02-20T13:10:52.051Z,97713.03
2023-02-20T13:13:19.579Z,97701.59
2023-02-20T13:16:07.818Z,97706.31
2023-02-20T13:18:48.120Z,97706.63
2023-02-20T13:21:24.041Z,97709.50
2023-02-20T13:23:53.141Z,97704.78
2023-02-20T13:26:35.511Z,97699.38
2023-02-20T13:29:14.210Z,97695.91
2023-02-20T13:32:19.025Z,97684.81
2023-02-20T13:34:46.157Z,97698.69
2023-02-20T13:37:34.401Z,97691.06
2023-02-20T13:40:35.391Z,97692.41
2023-02-20T13:43:24.811Z,97693.63
2023-02-20T13:46:00.382Z,97684.78
2023-02-20T13:48:29.643Z,97682.03
2023-02-20T13:51:14.448Z,97680.84
2023-02-20T13:53:43.229Z,97671.44
2023-02-20T13:56:38.544Z,97672.84
2023-02-20T13:59:12.630Z,97665.81
2023-02-20T14:02:12.915Z,97660.63
2023-02-20T14:04:39.659Z,97656.00
2023-02-20T14:07:06.201Z,97658.81
2023-02-20T14:09:32.961Z,97652.53
2023-02-20T14:12:12.345Z,97662.91
2023-02-20T14:14:45.048Z,97660.22
2023-02-20T14:17:19.451Z,97656.72
2023-02-20T14:19:49.776Z,97647.19
2023-02-20T14:22:22.205Z,97657.56
2023-02-20T14:25:23.009Z,97655.03
2023-02-20T14:27:50.532Z,97643.25
2023-02-20T14:30:19.211Z,97637.09
2023-02-20T14:32:56.631Z,97642.41
2023-02-20T14:35:30.349Z,97629.38
2023-02-20T14:38:06.678Z,97631.97
2023-02-20T14:40:39.292Z,97627.56
2023-02-20T14:43:15.419Z,97627.63
2023-02-20T14:45:43.802Z,97630.06
2023-02-20T14:48:26.773Z,97634.66
2023-02-20T14:51:17.647Z,97629.44
2023-02-20T14:53:46.076Z,97635.78
2023-02-20T14:56:17.217Z,97634.00
2023-02-20T14:58:46.012Z,97623.94
2023-02-20T15:01:21.473Z,97628.03
2023-02-20T15:04:17.318Z,97622.47
2023-02-20T15:06:48.315Z,97621.44
2023-02-20T15:09:22.853Z,97616.84
2023-02-20T15:12:06.692Z,97616.56
2023-02-20T15:14:33.631Z,97604.66
2023-02-20T15:17:13.120Z,97610.56
2023-02-20T15:19:42.583Z,97611.78
2023-02-20T15:22:40.878Z,97615.75
2023-02-20T15:25:26.820Z,97602.63
2023-02-20T15:28:19.151Z,97603.47
2023-02-20T15:31:06.225Z,97597.06
2023-02-20T15:33:39.535Z,97587.34
2023-02-20T15:36:11.632Z,97592.03
2023-02-20T15:38:38.319Z,97584.66
2023-02-20T15:41:05.750Z,97582.38
2023-02-20T15:43:51.337Z,97580.22
2023-02-20T15:46:19.891Z,97578.03
2023-02-20T15:48:46.976Z,97585.47
2023-02-20T15:51:21.413Z,97571.88
2023-02-20T15:53:48.631Z,97567.78
2023-02-20T15:56:16.276Z,97561.84
2023-02-20T15:58:43.417Z,97559.91
2023-02-20T16:01:10.674Z,97564.97
2023-02-20T16:03:49.536Z,97564.16
2023-02-20T16:06:20.190Z,97561.47
2023-02-20T16:08:47.072Z,97562.28
2023-02-20T16:11:14.453Z,97550.69
2023-02-20T16:13:44.442Z,97552.25
2023-02-20T16:16:25.308Z,97549.66
2023-02-20T16:18:54.809Z,97551.38
2023-02-20T16:21:23.168Z,97552.25
2023-02-20T16:23:50.345Z,97543.31
2023-02-20T16:26:20.433Z,97545.78
2023-02-20T16:28:52.088Z,97545.78
2023-02-20T16:31:18.668Z,97550.69
2023-02-20T16:33:45.268Z,97544.47
2023-02-20T16:36:20.011Z,97548.47
2023-02-20T16:38:51.016Z,97559.03
2023-02-20T16:41:17.574Z,97555.44
2023-02-20T16:43:44.095Z,97552.91
2023-02-20T16:46:10.703Z,97562.63
2023-02-20T16:48:37.343Z,97563.56
2023-02-20T16:51:06.259Z,97566.06
2023-02-20T16:53:32.969Z,97560.66
2023-02-20T16:55:59.525Z,97569.94
2023-02-20T16:58:26.126Z,97572.03
2023-02-20T17:00:57.940Z,97572.31
2023-02-20T17:03:25.366Z,97564.94
2023-02-20T17:05:58.454Z,97567.09
2023-02-20T17:08:25.906Z,97569.19
2023-02-20T17:10:53.143Z,97570.53
2023-02-20T17:13:19.667Z,97567.34
2023-02-20T17:15:47.711Z,97576.69
2023-02-20T17:18:14.968Z,97582.41
2023-02-20T17:20:41.587Z,97582.78
2023-02-20T17:23:08.179Z,97590.25
2023-02-20T17:25:34.935Z,97596.09
2023-02-20T17:28:01.910Z,97600.22
2023-02-20T17:30:28.583Z,97597.44
2023-02-20T17:32:55.124Z,97600.78
2023-02-20T17:35:21.647Z,97605.78
2023-02-20T17:37:49.102Z,97602.72
2023-02-20T17:40:16.215Z,97598.13
2023-02-20T17:42:42.745Z,97604.97
2023-02-20T17:45:10.007Z,97609.06
2023-02-20T17:47:37.463Z,97598.16
2023-02-20T17:50:04.624Z,97599.53
2023-02-20T17:52:31.218Z,97607.19
2023-02-20T17:54:57.872Z,97613.16
2023-02-20T17:57:24.391Z,97603.22
2023-02-20T17:59:50.958Z,97608.00
2023-02-20T18:02:18.793Z,97611.22
2023-02-20T18:04:45.658Z,97615.19
2023-02-20T18:07:13.968Z,97610.50
2023-02-20T18:09:40.591Z,97614.66
2023-02-20T18:12:07.579Z,97607.13
2023-02-20T18:14:34.086Z,97598.66
2023-02-20T18:17:00.591Z,97599.97
2023-02-20T18:19:27.186Z,97599.56
2023-02-20T18:21:53.831Z,97599.44
2023-02-20T18:24:24.474Z,97595.91
2023-02-20T18:26:52.658Z,97602.72
2023-02-20T18:29:20.847Z,97590.78
2023-02-20T18:31:51.296Z,97593.63
2023-02-20T18:34:18.304Z,97586.22
2023-02-20T18:36:45.087Z,97586.78
2023-02-20T18:39:13.816Z,97597.81
2023-02-20T18:41:41.002Z,97591.41
2023-02-20T18:44:09.095Z,97597.81
2023-02-20T18:46:39.681Z,97588.53
2023-02-20T18:49:07.705Z,97577.66
2023-02-20T18:51:37.311Z,97580.66
2023-02-20T18:54:05.468Z,97571.38
2023-02-20T18:56:32.096Z,97571.00
2023-02-20T18:58:59.195Z,97563.50
2023-02-20T19:01:25.737Z,97557.78
2023-02-20T19:03:53.765Z,97549.28
2023-02-20T19:06:34.240Z,97556.44
2023-02-20T19:09:01.791Z,97559.28
2023-02-20T19:11:28.948Z,97559.56
2023-02-20T19:13:55.593Z,97554.59
2023-02-20T19:16:22.871Z,97554.13
2023-02-20T19:18:50.758Z,97549.94
2023-02-20T19:21:19.093Z,97540.50
2023-02-20T19:23:45.890Z,97549.13
2023-02-20T19:26:12.932Z,97543.66
2023-02-20T19:28:42.153Z,97552.22
2023-02-20T19:31:10.531Z,97539.84
2023-02-20T19:33:37.607Z,97543.94
2023-02-20T19:36:05.216Z,97537.72
2023-02-20T19:38:32.227Z,97533.22
2023-02-20T19:40:58.721Z,97531.56
2023-02-20T19:43:27.576Z,97533.19
2023-02-20T19:45:54.111Z,97523.53
2023-02-20T19:48:20.636Z,97522.63
2023-02-20T19:50:47.165Z,97520.94
2023-02-20T19:53:16.370Z,97528.94
2023-02-20T19:55:42.970Z,97526.44
2023-02-20T19:58:09.516Z,97524.13
2023-02-20T20:00:36.004Z,97525.19
2023-02-20T20:03:02.618Z,97530.72
2023-02-20T20:05:29.187Z,97531.69
2023-02-20T20:07:55.764Z,97529.00
2023-02-20T20:10:22.978Z,97528.84
2023-02-20T20:12:49.630Z,97521.72
2023-02-20T20:15:21.856Z,97532.97
2023-02-20T20:17:54.190Z,97529.72
2023-02-20T20:20:22.335Z,97529.84
2023-02-20T20:22:50.244Z,97536.19
2023-02-20T20:25:17.681Z,97537.09
2023-02-20T20:27:44.298Z,97541.84
2023-02-20T20:30:18.406Z,97542.75
2023-02-20T20:32:46.513Z,97555.16
2023-02-20T20:35:13.035Z,97555.28
2023-02-20T20:37:39.535Z,97555.56
2023-02-20T20:40:06.983Z,97559.94
2023-02-20T20:42:33.778Z,97556.56
2023-02-20T20:45:00.508Z,97562.78
2023-02-20T20:47:29.666Z,97567.56
2023-02-20T20:49:57.454Z,97558.41
2023-02-20T20:52:24.865Z,97558.81
2023-02-20T20:54:53.524Z,97561.06
2023-02-20T20:57:22.112Z,97573.47
2023-02-20T20:59:49.387Z,97565.13
2023-02-20T21:02:17.665Z,97561.13
2023-02-20T21:04:45.673Z,97562.16
2023-02-20T21:07:12.514Z,97568.22
2023-02-20T21:09:39.065Z,97561.66
2023-02-20T21:12:06.042Z,97559.41
2023-02-20T21:14:35.347Z,97563.25
2023-02-20T21:17:05.744Z,97566.22
2023-02-20T21:19:32.272Z,97558.53
2023-02-20T21:21:58.789Z,97572.72
2023-02-20T21:24:25.503Z,97567.81
2023-02-20T21:26:52.533Z,97571.53
2023-02-20T21:29:19.056Z,97571.69
2023-02-20T21:31:46.607Z,97563.09
2023-02-20T21:34:16.321Z,97566.66
2023-02-20T21:36:43.863Z,97565.69
2023-02-20T21:39:10.922Z,97562.19
2023-02-20T21:41:56.044Z,97569.94
2023-02-20T21:44:27.627Z,97563.81
2023-02-20T21:47:03.789Z,97566.59
2023-02-20T21:49:32.253Z,97561.66
2023-02-20T21:51:59.251Z,97565.38
2023-02-20T21:54:29.031Z,97556.06
2023-02-20T21:56:56.264Z,97561.41
2023-02-20T21:59:22.940Z,97564.16
2023-02-20T22:01:50.396Z,97568.50
2023-02-20T22:04:17.043Z,97565.28
2023-02-20T22:06:45.465Z,97562.56
2023-02-20T22:09:33.909Z,97560.88
2023-02-20T22:12:18.882Z,97568.84
2023-02-20T22:15:03.915Z,97570.84
2023-02-20T22:17:48.600Z,97565.81
2023-02-20T22:20:33.347Z,97566.88
2023-02-20T22:23:18.220Z,97566.25
2023-02-20T22:26:03.130Z,97561.03
2023-02-20T22:28:48.436Z,97565.47
2023-02-20T22:31:33.158Z,97566.38
2023-02-20T22:34:18.335Z,97563.03
2023-02-20T22:37:07.256Z,97564.03
2023-02-20T22:39:52.076Z,97564.25
2023-02-20T22:42:36.894Z,97564.50
2023-02-20T22:45:22.152Z,97570.63
2023-02-20T22:48:06.933Z,97568.16
2023-02-20T22:50:51.685Z,97560.44
2023-02-20T22:53:36.425Z,97558.94
2023-02-20T22:56:23.254Z,97567.69
2023-02-20T22:59:08.011Z,97574.00
2023-02-20T23:01:52.932Z,97576.69
2023-02-20T23:04:38.054Z,97570.75
2023-02-20T23:07:23.072Z,97572.47
2023-02-20T23:10:07.865Z,97571.69
2023-02-20T23:12:52.572Z,97582.22
2023-02-20T23:15:37.335Z,97574.44
2023-02-20T23:18:22.738Z,97582.31
2023-02-20T23:21:07.717Z,97578.81
2023-02-20T23:23:52.509Z,97584.06
2023-02-20T23:26:37.555Z,97581.47
2023-02-20T23:29:22.402Z,97575.41
2023-02-20T23:32:07.336Z,97572.03
2023-02-20T23:34:52.348Z,97582.63
2023-02-20T23:37:37.043Z,97583.53
2023-02-20T23:40:30.954Z,97584.50
2023-02-20T23:43:21.215Z,97586.34
2023-02-20T23:46:05.973Z,97589.88
2023-02-20T23:48:51.061Z,97585.56
2023-02-20T23:51:36.352Z,97584.59
2023-02-20T23:54:21.601Z,97581.13
2023-02-20T23:57:06.994Z,97576.88
2023-02-20T23:59:52.288Z,97582.19
